This is the latest recevied weather packets stored in our database for station/object LZ2SLL-13. If no packets are shown the sender has not sent any weather packets the latest 1 day(s).
| Time | Temp. | Humidity | Pressure | Rain* | Wind** | Luminosity | Snow |
|---|---|---|---|---|---|---|---|
| 1777969299 | 18.33° C | 46% | - | 0 mm | 1.79 m/s, 175° | 878 W/m² | - |
| 1777968998 | 18.89° C | 42% | - | 0 mm | 2.68 m/s, 135° | 864 W/m² | - |
| 1777968697 | 18.89° C | 42% | - | 0 mm | 0.89 m/s, 171° | 859 W/m² | - |
| 1777968397 | 18.89° C | 41% | - | 0 mm | 2.68 m/s, 173° | 847 W/m² | - |
| 1777968096 | 19.44° C | 39% | - | 0 mm | 1.79 m/s, 108° | 834 W/m² | - |
| 1777967795 | 20° C | 40% | - | 0 mm | 0.45 m/s, 165° | 823 W/m² | - |
| 1777967494 | 20° C | 40% | - | 0 mm | 0.45 m/s, 264° | 808 W/m² | - |
| 1777967193 | 19.44° C | 42% | - | 0 mm | 0.89 m/s, 162° | 792 W/m² | - |
| 1777966893 | 18.89° C | 43% | - | 0 mm | 0.89 m/s, 169° | 776 W/m² | - |
| 1777966592 | 18.89° C | 41% | - | 0 mm | 1.34 m/s, 181° | 766 W/m² | - |
| 1777966292 | 18.89° C | 41% | - | 0 mm | 0.45 m/s, 189° | 752 W/m² | - |
| 1777965991 | 19.44° C | 38% | - | 0 mm | 1.79 m/s, 118° | 737 W/m² | - |
| 1777965690 | 18.89° C | 41% | - | 0 mm | 1.34 m/s, 174° | 721 W/m² | - |
| 1777965389 | 19.44° C | 37% | - | 0 mm | 0.89 m/s, 120° | 707 W/m² | - |
| 1777965089 | 19.44° C | 35% | - | 0 mm | 0.89 m/s, 90° | 690 W/m² | - |
| 1777964788 | 18.89° C | 38% | - | 0 mm | 1.34 m/s, 233° | 676 W/m² | - |
| 1777964487 | 18.89° C | 40% | - | 0 mm | 1.79 m/s, 175° | 660 W/m² | - |
| 1777964187 | 19.44° C | 37% | - | 0 mm | 1.34 m/s, 109° | 643 W/m² | - |
| 1777963886 | 19.44° C | 34% | - | 0 mm | 0.45 m/s, 89° | 622 W/m² | - |
| 1777963585 | 20.56° C | 30% | - | 0 mm | 0.45 m/s, 110° | 611 W/m² | - |
| 1777963284 | 19.44° C | 28% | - | 0 mm | 1.79 m/s, 53° | 590 W/m² | - |
| 1777962984 | 19.44° C | 29% | - | 0 mm | 1.79 m/s, 34° | 557 W/m² | - |
| 1777962683 | 18.89° C | 29% | - | 0 mm | 1.79 m/s, 256° | 559 W/m² | - |
| 1777962382 | 18.89° C | 29% | - | 0 mm | 0.89 m/s, 344° | 545 W/m² | - |
| 1777962082 | 19.44° C | 30% | - | 0 mm | 0.45 m/s, 74° | 522 W/m² | - |
* Rain latest hour (hover to see other rain measurements)
** Current wind speed in m/s (hover to see current wind gust speed)